Time;durP1;ratioP1;P1;durP2;ratioP2;P2;SDS_P1;SDS_P2;PMS_P1;PMS_P2;Temp;Humidity;BMP_temperature;BMP_pressure;BME280_temperature;BME280_humidity;BME280_pressure;Samples;Min_cycle;Max_cycle;Signal;HPM_P1;HPM_P2
2021/12/26 00:00:46;;;;;;;19.80;14.38;;;-5.90;99.90;;;;;;5061422;28;20818;-69
2021/12/26 00:03:19;;;;;;;21.85;16.27;;;-5.80;99.90;;;;;;5066593;28;20200;-69
2021/12/26 00:05:47;;;;;;;24.40;16.17;;;-5.90;99.90;;;;;;5065469;28;20220;-69
2021/12/26 00:08:15;;;;;;;23.65;15.27;;;-5.90;99.90;;;;;;5059958;28;20930;-67
2021/12/26 00:10:43;;;;;;;20.95;15.52;;;-5.90;99.90;;;;;;5060984;28;20208;-67
2021/12/26 00:13:11;;;;;;;27.10;16.70;;;-6.00;99.90;;;;;;5060547;28;20212;-66
2021/12/26 00:15:39;;;;;;;24.75;15.82;;;-6.00;99.90;;;;;;5060325;28;20220;-67
2021/12/26 00:18:09;;;;;;;23.45;15.50;;;-6.00;99.90;;;;;;5059870;28;20266;-66
2021/12/26 00:20:38;;;;;;;20.38;16.33;;;-6.00;99.90;;;;;;5060351;28;20293;-68
2021/12/26 00:23:07;;;;;;;24.85;15.95;;;-6.10;99.90;;;;;;5059268;28;20209;-68
2021/12/26 00:25:35;;;;;;;25.48;18.27;;;-6.10;99.90;;;;;;5059077;28;20217;-69
2021/12/26 00:28:03;;;;;;;23.73;15.77;;;-6.10;99.90;;;;;;5059388;28;20779;-67
2021/12/26 00:30:31;;;;;;;24.58;15.60;;;-6.10;99.90;;;;;;5058985;28;20205;-67
2021/12/26 00:32:59;;;;;;;29.20;15.35;;;-6.20;99.90;;;;;;5059446;28;20243;-66
2021/12/26 00:35:29;;;;;;;23.42;15.65;;;-6.10;99.90;;;;;;5059341;28;20227;-65
2021/12/26 00:37:57;;;;;;;24.67;15.27;;;-6.20;99.90;;;;;;5059095;28;20799;-69
2021/12/26 00:40:26;;;;;;;23.77;15.23;;;-6.10;99.90;;;;;;5059838;28;20197;-68
2021/12/26 00:42:56;;;;;;;21.70;14.32;;;-6.10;99.90;;;;;;5058954;28;20209;-67
2021/12/26 00:45:24;;;;;;;22.83;14.82;;;-6.20;99.90;;;;;;5059312;28;20240;-68
2021/12/26 00:47:53;;;;;;;22.70;14.82;;;-6.10;99.90;;;;;;5059172;28;20221;-65
2021/12/26 00:50:24;;;;;;;23.55;15.10;;;-6.20;99.90;;;;;;5059320;28;20201;-68
2021/12/26 00:52:54;;;;;;;19.08;14.00;;;-6.20;99.90;;;;;;5058947;28;20197;-67
2021/12/26 00:55:22;;;;;;;19.65;15.30;;;-6.30;99.90;;;;;;5059225;28;20227;-66
2021/12/26 00:57:50;;;;;;;21.10;14.38;;;-6.30;99.90;;;;;;5058926;28;20264;-67
2021/12/26 01:00:21;;;;;;;20.90;15.18;;;-6.20;99.90;;;;;;5058707;28;20209;-65
2021/12/26 01:02:50;;;;;;;25.00;15.10;;;-6.20;99.90;;;;;;5059172;28;20201;-67
2021/12/26 01:05:20;;;;;;;26.30;15.35;;;-6.10;99.90;;;;;;5059320;28;20804;-66
2021/12/26 01:07:56;;;;;;;20.13;14.40;;;-6.10;99.90;;;;;;5058712;28;20230;-67
2021/12/26 01:10:31;;;;;;;25.77;13.77;;;-6.20;99.90;;;;;;5059113;28;20816;-70
2021/12/26 01:13:08;;;;;;;27.80;14.00;;;-6.20;99.90;;;;;;5058953;28;20204;-68
2021/12/26 01:15:36;;;;;;;23.10;13.98;;;-6.20;99.90;;;;;;5059186;28;20224;-66
2021/12/26 01:18:04;;;;;;;21.75;16.00;;;-6.20;99.90;;;;;;5058908;28;20227;-66
2021/12/26 01:20:46;;;;;;;23.60;14.35;;;-6.20;99.90;;;;;;5059033;28;20270;-67
2021/12/26 01:23:18;;;;;;;27.52;14.32;;;-6.20;99.90;;;;;;5058851;28;20223;-67
2021/12/26 01:25:48;;;;;;;22.08;14.73;;;-6.20;99.90;;;;;;5058375;28;20758;-67
2021/12/26 01:28:18;;;;;;;17.65;13.15;;;-6.20;99.90;;;;;;5059085;28;20224;-69
2021/12/26 01:30:46;;;;;;;22.05;14.18;;;-6.30;99.90;;;;;;5058770;28;20204;-69
2021/12/26 01:33:17;;;;;;;19.52;14.18;;;-6.30;99.90;;;;;;5059277;28;20200;-67
2021/12/26 01:35:45;;;;;;;21.10;13.57;;;-6.30;99.90;;;;;;5059439;28;20251;-68
2021/12/26 01:38:15;;;;;;;21.75;14.35;;;-6.30;99.90;;;;;;5059382;28;20193;-67
2021/12/26 01:40:47;;;;;;;20.00;12.88;;;-6.40;99.90;;;;;;5060026;28;20242;-65
2021/12/26 01:43:19;;;;;;;20.65;13.45;;;-6.40;99.90;;;;;;5059708;28;20208;-66
2021/12/26 01:45:47;;;;;;;22.67;14.73;;;-6.40;99.90;;;;;;5059962;28;20304;-66
2021/12/26 01:48:16;;;;;;;21.85;14.75;;;-6.40;99.90;;;;;;5060357;28;20228;-65
2021/12/26 01:50:46;;;;;;;18.17;14.27;;;-6.50;99.90;;;;;;5059204;28;20203;-66
2021/12/26 01:53:14;;;;;;;15.43;11.73;;;-6.50;99.90;;;;;;5059129;28;20323;-67
2021/12/26 01:55:45;;;;;;;17.35;13.15;;;-6.50;99.90;;;;;;5058482;28;20221;-68
2021/12/26 01:58:15;;;;;;;15.15;10.48;;;-6.50;99.90;;;;;;5058411;28;20753;-67
2021/12/26 02:00:49;;;;;;;16.77;10.00;;;-6.50;99.90;;;;;;5058685;28;20215;-65
2021/12/26 02:03:17;;;;;;;12.05;9.43;;;-6.50;99.90;;;;;;5058082;28;20201;-67
2021/12/26 02:05:45;;;;;;;14.82;9.57;;;-6.50;99.90;;;;;;5058758;28;20224;-67
2021/12/26 02:08:14;;;;;;;12.20;9.15;;;-6.50;99.90;;;;;;5057942;28;20605;-65
2021/12/26 02:10:42;;;;;;;11.95;9.00;;;-6.50;99.90;;;;;;5058279;28;20205;-67
2021/12/26 02:13:09;;;;;;;11.00;9.15;;;-6.50;99.90;;;;;;5057464;28;20788;-65
2021/12/26 02:15:38;;;;;;;17.05;9.18;;;-6.50;99.90;;;;;;5057841;28;20225;-65
2021/12/26 02:18:08;;;;;;;11.85;9.30;;;-6.50;99.90;;;;;;5060204;28;20211;-67
2021/12/26 02:20:50;;;;;;;13.90;8.48;;;-6.50;99.90;;;;;;5062434;28;20201;-66
2021/12/26 02:23:24;;;;;;;12.40;8.07;;;-6.40;99.90;;;;;;5061584;28;20224;-65
2021/12/26 02:28:51;;;;;;;14.93;8.25;;;-6.50;99.90;;;;;;5018849;28;20248;-67
2021/12/26 02:31:19;;;;;;;12.23;8.10;;;-6.50;99.90;;;;;;5019029;28;20206;-67
2021/12/26 02:33:47;;;;;;;11.20;8.63;;;-6.50;99.90;;;;;;5018519;28;20238;-67
2021/12/26 02:36:16;;;;;;;15.00;9.25;;;-6.40;99.90;;;;;;5018847;28;20313;-66
2021/12/26 02:38:44;;;;;;;12.43;7.35;;;-6.50;99.90;;;;;;5018645;28;20248;-66
2021/12/26 02:41:12;;;;;;;11.93;8.43;;;-6.40;99.90;;;;;;5052939;28;20231;-68
2021/12/26 02:43:40;;;;;;;11.95;7.85;;;-6.50;99.90;;;;;;5061320;28;20255;-68
2021/12/26 02:46:07;;;;;;;14.05;7.97;;;-6.50;99.90;;;;;;5061758;28;20221;-68
2021/12/26 02:48:37;;;;;;;14.30;8.73;;;-6.50;99.90;;;;;;5061498;28;20759;-68
2021/12/26 02:51:06;;;;;;;9.40;8.10;;;-6.50;99.90;;;;;;5061248;28;20205;-66
2021/12/26 02:53:35;;;;;;;14.90;7.32;;;-6.50;99.90;;;;;;5061845;28;20192;-67
2021/12/26 02:56:05;;;;;;;10.05;8.43;;;-6.50;99.90;;;;;;5060935;28;20308;-67
2021/12/26 02:58:33;;;;;;;28.13;9.88;;;-6.60;99.90;;;;;;5060541;28;20201;-65
2021/12/26 03:01:05;;;;;;;14.05;7.90;;;-6.60;99.90;;;;;;5062097;28;20354;-66
2021/12/26 03:03:33;;;;;;;13.02;8.68;;;-6.70;99.90;;;;;;5061549;28;20822;-66
2021/12/26 03:06:05;;;;;;;9.73;7.32;;;-6.70;99.90;;;;;;5066212;28;20239;-65
2021/12/26 03:08:35;;;;;;;9.77;7.47;;;-6.70;99.90;;;;;;5067090;28;20721;-64
2021/12/26 03:11:03;;;;;;;8.85;7.88;;;-6.70;99.90;;;;;;5063070;28;20789;-65
2021/12/26 03:13:30;;;;;;;17.75;8.90;;;-6.70;99.90;;;;;;5062639;28;20205;-65
2021/12/26 03:15:58;;;;;;;12.00;7.45;;;-6.70;99.90;;;;;;5061064;28;20232;-66
2021/12/26 03:18:27;;;;;;;11.88;8.93;;;-6.80;99.90;;;;;;5061167;28;20236;-68
2021/12/26 03:20:54;;;;;;;10.60;8.15;;;-6.80;99.90;;;;;;5061367;28;20193;-67
2021/12/26 03:23:25;;;;;;;12.05;8.70;;;-6.80;99.90;;;;;;5061816;28;20213;-66
2021/12/26 03:25:56;;;;;;;14.75;9.18;;;-6.80;99.90;;;;;;5061713;28;20228;-66
2021/12/26 03:28:25;;;;;;;12.52;8.10;;;-6.80;99.90;;;;;;5060780;28;20201;-68
2021/12/26 03:30:54;;;;;;;15.25;8.50;;;-6.80;99.90;;;;;;5059889;28;20236;-67
2021/12/26 03:33:23;;;;;;;13.55;9.30;;;-6.90;99.90;;;;;;5060570;28;20197;-66
2021/12/26 03:35:51;;;;;;;12.15;8.50;;;-6.90;99.90;;;;;;5060375;28;20868;-66
2021/12/26 03:38:21;;;;;;;9.73;7.43;;;-7.00;99.90;;;;;;5060522;28;20205;-63
2021/12/26 03:40:50;;;;;;;11.48;8.43;;;-7.00;99.90;;;;;;5060423;28;20233;-63
2021/12/26 03:43:20;;;;;;;11.25;8.75;;;-7.00;99.90;;;;;;5060184;28;20205;-63
2021/12/26 03:45:50;;;;;;;10.40;8.18;;;-7.10;99.90;;;;;;5060007;28;20228;-63
2021/12/26 03:48:20;;;;;;;10.05;7.95;;;-7.10;99.90;;;;;;5060458;28;20223;-64
2021/12/26 03:50:47;;;;;;;11.40;7.93;;;-7.10;99.90;;;;;;5060064;28;20227;-64
2021/12/26 03:53:16;;;;;;;10.48;9.50;;;-7.10;99.90;;;;;;5060055;28;20211;-64
2021/12/26 03:55:45;;;;;;;12.30;7.82;;;-7.10;99.90;;;;;;5060280;28;20221;-62
2021/12/26 03:58:15;;;;;;;16.40;8.93;;;-7.20;99.90;;;;;;5060358;28;20212;-63
2021/12/26 04:00:46;;;;;;;13.00;8.40;;;-7.20;99.90;;;;;;5060559;28;20197;-66
2021/12/26 04:03:14;;;;;;;8.35;7.43;;;-7.30;99.90;;;;;;5059983;28;20205;-63
2021/12/26 04:05:42;;;;;;;8.68;7.05;;;-7.30;99.90;;;;;;5060531;28;20225;-63
2021/12/26 04:08:10;;;;;;;10.50;8.45;;;-7.30;99.90;;;;;;5060099;28;20209;-65
2021/12/26 04:10:38;;;;;;;15.18;9.98;;;-7.30;99.90;;;;;;5060447;28;20221;-64
2021/12/26 04:13:06;;;;;;;13.95;8.73;;;-7.30;99.90;;;;;;5060434;28;20212;-64
2021/12/26 04:15:34;;;;;;;9.77;8.00;;;-7.30;99.90;;;;;;5060246;28;20232;-62
2021/12/26 04:18:04;;;;;;;14.55;8.30;;;-7.30;99.90;;;;;;5060570;28;20271;-64
2021/12/26 04:20:32;;;;;;;13.55;8.52;;;-7.30;99.90;;;;;;5060444;28;20207;-62
2021/12/26 04:23:00;;;;;;;15.48;9.40;;;-7.30;99.90;;;;;;5059967;28;20220;-64
2021/12/26 04:25:28;;;;;;;11.88;7.90;;;-7.30;99.90;;;;;;5060155;28;20221;-62
2021/12/26 04:27:56;;;;;;;10.55;8.18;;;-7.30;99.90;;;;;;5060014;28;20212;-63
2021/12/26 04:30:24;;;;;;;13.43;9.65;;;-7.40;99.90;;;;;;5059958;28;20225;-64
2021/12/26 04:32:52;;;;;;;13.95;9.05;;;-7.40;99.90;;;;;;5059305;28;20209;-64
2021/12/26 04:35:22;;;;;;;10.63;8.20;;;-7.40;99.90;;;;;;5059173;28;20236;-64
2021/12/26 04:37:49;;;;;;;10.65;7.68;;;-7.40;99.90;;;;;;5059516;28;20205;-64
2021/12/26 04:40:18;;;;;;;8.02;7.22;;;-7.40;99.90;;;;;;5059453;28;20205;-64
2021/12/26 04:42:47;;;;;;;8.52;7.55;;;-7.40;99.90;;;;;;5058902;28;20208;-64
2021/12/26 04:45:16;;;;;;;11.93;8.15;;;-7.40;99.90;;;;;;5058792;28;20757;-65
2021/12/26 04:47:45;;;;;;;12.30;8.23;;;-7.40;99.90;;;;;;5059079;28;20339;-65
2021/12/26 04:50:16;;;;;;;11.48;8.68;;;-7.50;99.90;;;;;;5059103;28;20225;-63
2021/12/26 04:52:46;;;;;;;12.27;8.98;;;-7.50;99.90;;;;;;5058971;28;20291;-64
2021/12/26 04:55:18;;;;;;;10.90;7.47;;;-7.50;99.90;;;;;;5059146;28;20252;-65
2021/12/26 04:57:47;;;;;;;10.07;6.70;;;-7.50;99.90;;;;;;5059045;28;20204;-64
2021/12/26 05:00:17;;;;;;;10.85;7.05;;;-7.50;99.90;;;;;;5060242;28;20401;-65
2021/12/26 05:02:46;;;;;;;8.98;7.43;;;-7.50;99.90;;;;;;5060419;28;20207;-64
2021/12/26 05:05:14;;;;;;;9.70;6.70;;;-7.50;99.90;;;;;;5059136;28;20229;-63
2021/12/26 05:07:43;;;;;;;13.10;8.35;;;-7.50;99.90;;;;;;5060074;28;20204;-63
2021/12/26 05:10:15;;;;;;;9.60;7.75;;;-7.60;99.90;;;;;;5060083;28;20217;-64
2021/12/26 05:12:43;;;;;;;13.43;7.68;;;-7.60;99.90;;;;;;5058560;28;20706;-63
2021/12/26 05:15:13;;;;;;;12.60;7.05;;;-7.60;99.90;;;;;;5058518;28;20236;-63
2021/12/26 05:17:44;;;;;;;8.30;7.47;;;-7.60;99.90;;;;;;5058612;28;20220;-65
2021/12/26 05:20:13;;;;;;;11.90;7.50;;;-7.70;99.90;;;;;;5058337;28;20258;-64
2021/12/26 05:22:41;;;;;;;15.63;7.53;;;-7.70;99.90;;;;;;5058895;28;20219;-64
2021/12/26 05:25:10;;;;;;;12.63;7.72;;;-7.70;99.90;;;;;;5058600;28;20220;-65
2021/12/26 05:27:39;;;;;;;8.38;6.68;;;-7.70;99.90;;;;;;5058417;28;20284;-65
2021/12/26 05:30:10;;;;;;;12.07;8.00;;;-7.70;99.90;;;;;;5058781;28;20224;-64
2021/12/26 05:32:38;;;;;;;10.43;7.25;;;-7.70;99.90;;;;;;5058504;28;20205;-64
2021/12/26 05:35:09;;;;;;;14.77;7.85;;;-7.80;99.90;;;;;;5058666;28;20899;-64
2021/12/26 05:37:37;;;;;;;10.48;8.15;;;-7.70;99.90;;;;;;5058982;28;20201;-65
2021/12/26 05:40:07;;;;;;;7.80;7.10;;;-7.70;99.90;;;;;;5058212;28;20205;-64
2021/12/26 05:42:35;;;;;;;10.55;6.72;;;-7.80;99.90;;;;;;5058239;28;20205;-64
2021/12/26 05:45:05;;;;;;;9.27;6.72;;;-7.70;99.90;;;;;;5058770;28;20699;-64
2021/12/26 05:47:33;;;;;;;8.07;6.30;;;-7.80;99.90;;;;;;5059002;28;20203;-63
2021/12/26 05:50:01;;;;;;;8.45;7.10;;;-7.80;99.90;;;;;;5057918;28;20840;-65
2021/12/26 05:52:29;;;;;;;13.10;7.80;;;-7.80;99.90;;;;;;5059287;28;20193;-63
2021/12/26 05:54:57;;;;;;;9.20;6.93;;;-7.80;99.90;;;;;;5061870;28;20211;-65
2021/12/26 05:57:25;;;;;;;11.88;7.00;;;-7.90;99.90;;;;;;5063149;28;20808;-63
2021/12/26 05:59:53;;;;;;;8.27;6.78;;;-7.90;99.90;;;;;;5062490;28;20203;-62
2021/12/26 06:02:23;;;;;;;11.38;5.95;;;-7.90;99.90;;;;;;5062551;28;20197;-65
2021/12/26 06:04:52;;;;;;;6.18;5.57;;;-7.90;99.90;;;;;;5063117;28;20296;-63
2021/12/26 06:07:19;;;;;;;13.57;7.07;;;-7.90;99.90;;;;;;5067114;28;20200;-63
2021/12/26 06:09:48;;;;;;;9.75;6.28;;;-7.90;99.90;;;;;;5067510;28;20239;-63
2021/12/26 06:12:16;;;;;;;8.95;6.28;;;-7.80;99.90;;;;;;5065301;28;20256;-62
2021/12/26 06:14:44;;;;;;;10.82;6.55;;;-7.80;99.90;;;;;;5061851;28;20201;-62
2021/12/26 06:17:12;;;;;;;10.15;7.22;;;-7.80;99.90;;;;;;5062141;28;20209;-64
2021/12/26 06:19:41;;;;;;;9.15;5.82;;;-7.80;99.90;;;;;;5061245;28;20326;-64
2021/12/26 06:22:09;;;;;;;6.68;5.78;;;-7.90;99.90;;;;;;5060977;28;20201;-64
2021/12/26 06:24:37;;;;;;;8.15;5.88;;;-7.90;99.90;;;;;;5061353;28;20205;-65
2021/12/26 06:27:05;;;;;;;6.88;5.00;;;-7.90;99.90;;;;;;5061271;28;20221;-64
2021/12/26 06:29:33;;;;;;;7.53;5.28;;;-8.00;99.90;;;;;;5061001;28;20205;-65
2021/12/26 06:32:01;;;;;;;8.30;5.80;;;-7.90;99.90;;;;;;5061148;28;20217;-64
2021/12/26 06:34:30;;;;;;;6.00;4.43;;;-7.90;99.90;;;;;;5060367;28;20779;-66
2021/12/26 06:36:59;;;;;;;9.52;5.07;;;-7.90;99.90;;;;;;5061575;28;20221;-64
2021/12/26 06:39:27;;;;;;;5.35;4.80;;;-8.00;99.90;;;;;;5060640;28;20397;-64
2021/12/26 06:41:54;;;;;;;6.78;4.47;;;-8.00;99.90;;;;;;5060901;28;20781;-64
2021/12/26 06:44:23;;;;;;;6.18;4.38;;;-8.00;99.90;;;;;;5060630;28;20208;-63
2021/12/26 06:46:50;;;;;;;7.63;5.18;;;-8.00;99.90;;;;;;5060338;28;20711;-65
2021/12/26 06:49:18;;;;;;;5.85;4.78;;;-8.00;99.90;;;;;;5060548;28;20590;-63
2021/12/26 06:51:46;;;;;;;6.95;4.45;;;-8.00;99.90;;;;;;5060616;28;20749;-63
2021/12/26 06:54:16;;;;;;;7.40;5.45;;;-8.10;99.90;;;;;;5060632;28;20216;-64
2021/12/26 06:56:44;;;;;;;7.18;4.30;;;-8.10;99.90;;;;;;5060708;28;20757;-64
2021/12/26 06:59:12;;;;;;;6.53;3.97;;;-8.10;99.90;;;;;;5060602;28;20289;-64
2021/12/26 07:01:40;;;;;;;7.47;4.22;;;-8.10;99.90;;;;;;5060360;28;20865;-66
2021/12/26 07:04:08;;;;;;;4.55;4.00;;;-8.10;99.90;;;;;;5059324;28;20418;-64
2021/12/26 07:06:36;;;;;;;4.68;3.90;;;-8.10;99.90;;;;;;5060773;28;20921;-64
2021/12/26 07:09:04;;;;;;;5.85;4.18;;;-8.10;99.90;;;;;;5060527;28;20201;-67
2021/12/26 07:11:33;;;;;;;4.30;3.90;;;-8.10;99.90;;;;;;5060456;28;20213;-66
2021/12/26 07:14:01;;;;;;;5.82;3.83;;;-8.10;99.90;;;;;;5062926;28;20588;-64
2021/12/26 07:16:29;;;;;;;5.93;4.30;;;-8.10;99.90;;;;;;5061206;28;20216;-65
2021/12/26 07:18:57;;;;;;;7.20;4.05;;;-8.10;99.90;;;;;;5061367;28;20225;-66
2021/12/26 07:21:24;;;;;;;5.40;4.72;;;-8.10;99.90;;;;;;5060416;28;20204;-65
2021/12/26 07:23:52;;;;;;;4.13;3.72;;;-8.20;99.90;;;;;;5059921;28;20239;-63
2021/12/26 07:26:20;;;;;;;5.30;4.43;;;-8.20;99.90;;;;;;5059859;28;20229;-66
2021/12/26 07:28:49;;;;;;;4.53;4.00;;;-8.20;99.90;;;;;;5061237;28;20201;-65
2021/12/26 07:31:17;;;;;;;5.30;4.57;;;-8.20;99.90;;;;;;5060418;28;20752;-66
2021/12/26 07:33:45;;;;;;;6.25;3.75;;;-8.20;99.90;;;;;;5059939;28;20203;-69
2021/12/26 07:36:13;;;;;;;7.60;3.80;;;-8.20;99.90;;;;;;5060265;28;20229;-69
2021/12/26 07:38:41;;;;;;;4.00;3.45;;;-8.10;99.90;;;;;;5060374;28;20205;-69
2021/12/26 07:41:21;;;;;;;7.07;4.50;;;-8.00;99.90;;;;;;5060299;28;20224;-68
2021/12/26 07:43:50;;;;;;;7.90;4.85;;;-8.00;99.90;;;;;;5060272;28;20201;-68
2021/12/26 07:46:19;;;;;;;5.45;3.60;;;-8.00;99.90;;;;;;5059727;28;20231;-67
2021/12/26 07:48:47;;;;;;;5.03;4.43;;;-8.00;99.90;;;;;;5060260;28;20247;-65
2021/12/26 07:51:15;;;;;;;5.72;4.10;;;-8.10;99.90;;;;;;5059825;28;20215;-65
2021/12/26 07:53:42;;;;;;;7.70;4.53;;;-8.20;99.90;;;;;;5060373;28;20209;-64
2021/12/26 07:56:10;;;;;;;6.72;3.95;;;-8.20;99.90;;;;;;5059843;28;20217;-66
2021/12/26 07:58:38;;;;;;;6.35;4.55;;;-8.20;99.90;;;;;;5060037;28;20193;-65
2021/12/26 08:01:08;;;;;;;6.88;4.40;;;-8.20;99.90;;;;;;5059908;28;20196;-67
2021/12/26 08:03:36;;;;;;;6.47;4.53;;;-8.20;99.90;;;;;;5060461;28;20212;-65
2021/12/26 08:06:07;;;;;;;6.18;4.70;;;-8.30;99.90;;;;;;5059985;28;20225;-65
2021/12/26 08:08:36;;;;;;;6.03;4.40;;;-8.20;99.90;;;;;;5059735;28;20197;-67
2021/12/26 08:11:05;;;;;;;9.10;4.57;;;-8.20;99.90;;;;;;5059830;28;20197;-66
2021/12/26 08:13:34;;;;;;;5.35;4.68;;;-8.20;99.90;;;;;;5058596;28;20225;-66
2021/12/26 08:16:02;;;;;;;4.22;3.80;;;-8.20;99.90;;;;;;5059252;28;20316;-66
2021/12/26 08:18:32;;;;;;;6.28;4.90;;;-8.20;99.90;;;;;;5060186;28;20199;-66
2021/12/26 08:21:00;;;;;;;7.85;4.65;;;-8.10;99.90;;;;;;5059034;28;20204;-69
2021/12/26 08:23:28;;;;;;;6.22;5.20;;;-8.00;99.90;;;;;;5059186;28;20205;-67
2021/12/26 08:25:57;;;;;;;5.85;4.40;;;-8.00;99.90;;;;;;5059514;28;20229;-66
2021/12/26 08:28:25;;;;;;;8.60;4.10;;;-7.90;99.90;;;;;;5059113;28;20209;-66
2021/12/26 08:30:53;;;;;;;6.72;4.45;;;-7.90;99.90;;;;;;5059498;28;20208;-65
2021/12/26 08:33:21;;;;;;;8.07;4.72;;;-7.80;99.90;;;;;;5058970;28;20221;-68
2021/12/26 08:35:50;;;;;;;5.85;4.60;;;-7.80;99.90;;;;;;5059495;28;20244;-64
2021/12/26 08:38:21;;;;;;;6.85;4.35;;;-7.80;99.90;;;;;;5060751;28;20205;-67
2021/12/26 08:40:50;;;;;;;8.32;5.03;;;-7.80;99.90;;;;;;5060598;28;20315;-65
2021/12/26 08:43:19;;;;;;;8.38;4.00;;;-7.70;99.90;;;;;;5061568;28;20201;-64
2021/12/26 08:45:47;;;;;;;5.82;4.13;;;-7.70;99.90;;;;;;5061830;28;20867;-64
2021/12/26 08:48:16;;;;;;;7.10;4.80;;;-7.60;99.90;;;;;;5061486;28;20274;-65
2021/12/26 08:50:44;;;;;;;3.45;3.15;;;-7.60;99.90;;;;;;5061310;28;20284;-65
2021/12/26 08:53:14;;;;;;;12.43;4.57;;;-7.50;99.90;;;;;;5061204;28;20213;-65
2021/12/26 08:55:42;;;;;;;9.60;4.65;;;-7.50;99.90;;;;;;5061261;28;20249;-66
2021/12/26 08:58:10;;;;;;;9.60;4.93;;;-7.50;99.90;;;;;;5059561;28;20211;-68
2021/12/26 09:00:38;;;;;;;5.25;4.10;;;-7.40;99.90;;;;;;5059134;28;20796;-68
2021/12/26 09:03:06;;;;;;;5.63;5.07;;;-7.30;99.90;;;;;;5058654;28;20192;-68
2021/12/26 09:05:34;;;;;;;9.80;4.95;;;-7.20;99.90;;;;;;5059040;28;20215;-67
2021/12/26 09:08:02;;;;;;;9.07;4.68;;;-7.10;99.90;;;;;;5060423;28;20189;-68
2021/12/26 09:10:31;;;;;;;5.18;4.68;;;-7.00;99.90;;;;;;5068383;28;20207;-68
2021/12/26 09:12:59;;;;;;;5.38;4.55;;;-6.90;99.90;;;;;;5064035;28;20213;-67
2021/12/26 09:15:27;;;;;;;7.35;5.47;;;-6.80;99.90;;;;;;5059172;28;20214;-69
2021/12/26 09:17:55;;;;;;;6.70;6.10;;;-6.80;99.90;;;;;;5058956;28;20193;-70
2021/12/26 09:20:24;;;;;;;5.13;4.45;;;-6.70;99.90;;;;;;5058891;28;20200;-68
2021/12/26 09:22:52;;;;;;;5.32;4.80;;;-6.60;99.90;;;;;;5058528;28;20201;-73
2021/12/26 09:25:21;;;;;;;6.07;4.65;;;-6.60;99.90;;;;;;5058365;28;20220;-72
2021/12/26 09:27:50;;;;;;;7.78;4.63;;;-6.60;99.90;;;;;;5056726;28;20227;-67
2021/12/26 09:30:18;;;;;;;9.38;4.97;;;-6.50;99.90;;;;;;5056864;28;20230;-66
2021/12/26 09:32:46;;;;;;;6.80;4.70;;;-6.50;99.90;;;;;;5054681;28;20201;-66
2021/12/26 09:35:14;;;;;;;6.68;4.38;;;-6.40;99.90;;;;;;5057408;28;20205;-66
2021/12/26 09:37:43;;;;;;;6.25;4.88;;;-6.40;99.90;;;;;;5058770;28;20196;-67
2021/12/26 09:40:13;;;;;;;6.47;4.60;;;-6.40;99.90;;;;;;5059064;28;20201;-66
2021/12/26 09:42:42;;;;;;;10.07;5.50;;;-6.40;99.90;;;;;;5058202;28;20193;-66
2021/12/26 09:45:12;;;;;;;7.13;5.30;;;-6.30;99.90;;;;;;5057771;28;20931;-67
2021/12/26 09:47:41;;;;;;;6.68;5.30;;;-6.20;99.90;;;;;;5057857;28;20205;-68
2021/12/26 09:50:13;;;;;;;6.80;5.00;;;-6.20;99.90;;;;;;5057686;28;20201;-67
2021/12/26 09:52:43;;;;;;;7.40;5.15;;;-6.10;99.90;;;;;;5037655;28;20228;-67
2021/12/26 09:55:11;;;;;;;7.60;5.13;;;-6.10;99.90;;;;;;5052329;28;20213;-67
2021/12/26 09:57:39;;;;;;;11.38;6.07;;;-6.00;99.90;;;;;;5057202;28;20201;-67
2021/12/26 10:00:27;;;;;;;6.40;5.13;;;-6.00;99.90;;;;;;5056060;28;20205;-64
2021/12/26 10:03:18;;;;;;;9.73;5.15;;;-5.90;99.90;;;;;;5057282;28;20277;-64
2021/12/26 10:05:58;;;;;;;5.93;4.20;;;-5.90;99.90;;;;;;5058001;28;20327;-65
2021/12/26 10:08:27;;;;;;;7.05;4.95;;;-5.80;99.90;;;;;;5056851;28;20683;-65
2021/12/26 10:11:15;;;;;;;5.43;3.85;;;-5.70;99.90;;;;;;5057523;28;20213;-64
2021/12/26 10:13:45;;;;;;;9.35;4.68;;;-5.70;99.90;;;;;;5057628;28;20278;-65
2021/12/26 10:16:16;;;;;;;6.72;4.82;;;-5.60;99.90;;;;;;5057501;28;20217;-66
2021/12/26 10:18:45;;;;;;;7.72;4.97;;;-5.60;99.90;;;;;;5057674;28;20726;-63
2021/12/26 10:21:30;;;;;;;5.60;3.83;;;-5.50;99.90;;;;;;5057709;28;20213;-65
2021/12/26 10:24:01;;;;;;;4.90;4.05;;;-5.40;99.90;;;;;;5057605;28;20771;-64
2021/12/26 10:26:31;;;;;;;6.95;4.47;;;-5.40;99.90;;;;;;5058556;28;20240;-65
2021/12/26 10:29:07;;;;;;;7.03;3.92;;;-5.40;99.90;;;;;;5058248;28;20204;-64
2021/12/26 10:31:38;;;;;;;7.40;4.68;;;-5.20;99.90;;;;;;5057277;28;20201;-63
2021/12/26 10:34:06;;;;;;;6.47;3.95;;;-5.20;99.90;;;;;;5057766;28;20221;-64
2021/12/26 10:36:43;;;;;;;4.40;4.00;;;-5.10;99.90;;;;;;5057624;28;20235;-65
2021/12/26 10:39:17;;;;;;;12.68;4.25;;;-5.00;99.90;;;;;;5059469;28;20227;-65
2021/12/26 10:41:47;;;;;;;4.25;3.80;;;-4.90;99.90;;;;;;5061320;28;20197;-65
2021/12/26 10:44:27;;;;;;;4.50;4.10;;;-4.90;99.90;;;;;;5059958;28;20201;-64
2021/12/26 10:47:04;;;;;;;3.97;2.95;;;-4.80;99.90;;;;;;5057344;28;20220;-65
2021/12/26 10:49:39;;;;;;;4.60;3.30;;;-4.80;99.90;;;;;;5060108;28;20558;-64
2021/12/26 10:52:17;;;;;;;3.75;3.33;;;-4.70;99.90;;;;;;5060263;28;20215;-65
2021/12/26 10:54:51;;;;;;;4.13;2.85;;;-4.60;99.90;;;;;;5058069;28;20209;-64
2021/12/26 10:57:21;;;;;;;3.45;2.80;;;-4.60;99.90;;;;;;5057647;28;20203;-64
2021/12/26 11:00:00;;;;;;;4.72;2.88;;;-4.50;99.90;;;;;;5059693;28;20269;-64
2021/12/26 11:02:31;;;;;;;4.97;2.80;;;-4.50;99.90;;;;;;5059177;28;20377;-64
2021/12/26 11:05:03;;;;;;;5.20;3.80;;;-4.40;99.90;;;;;;5057029;28;20193;-63
2021/12/26 11:07:40;;;;;;;4.35;2.72;;;-4.30;99.90;;;;;;5059964;28;20209;-64
2021/12/26 11:10:12;;;;;;;4.25;3.13;;;-4.30;99.90;;;;;;5059625;28;20617;-64
2021/12/26 11:12:42;;;;;;;5.90;2.90;;;-4.20;99.90;;;;;;5057941;28;20192;-66
2021/12/26 11:15:11;;;;;;;5.53;3.90;;;-4.20;99.90;;;;;;5059469;28;20739;-63
2021/12/26 11:17:44;;;;;;;4.05;2.75;;;-4.10;99.90;;;;;;5059832;28;20193;-65
2021/12/26 11:20:27;;;;;;;3.10;2.90;;;-4.00;99.90;;;;;;5060063;28;20217;-65
2021/12/26 11:22:55;;;;;;;3.45;2.65;;;-3.90;99.90;;;;;;5059814;28;20306;-63
2021/12/26 11:25:24;;;;;;;3.42;3.13;;;-3.90;99.90;;;;;;5059592;28;20213;-65
2021/12/26 11:27:53;;;;;;;3.72;3.00;;;-3.90;99.90;;;;;;5060008;28;20201;-66
2021/12/26 11:30:22;;;;;;;3.33;2.45;;;-3.80;99.90;;;;;;5060239;28;20219;-64
2021/12/26 11:32:51;;;;;;;4.28;3.05;;;-3.80;99.90;;;;;;5060076;28;20716;-64
2021/12/26 11:35:20;;;;;;;2.90;2.58;;;-3.70;99.90;;;;;;5060047;28;20450;-65
2021/12/26 11:37:49;;;;;;;3.88;2.42;;;-3.70;99.90;;;;;;5060101;28;20238;-64
2021/12/26 11:40:17;;;;;;;3.28;2.97;;;-3.70;99.90;;;;;;5059715;28;20217;-65
2021/12/26 11:43:12;;;;;;;3.00;2.70;;;-3.70;99.90;;;;;;5071993;28;20204;-65
2021/12/26 11:45:50;;;;;;;3.13;2.83;;;-3.60;99.90;;;;;;5050722;28;20311;-64
2021/12/26 11:48:44;;;;;;;4.30;3.50;;;-3.50;99.90;;;;;;5061256;28;20635;-66
2021/12/26 11:51:32;;;;;;;3.92;3.03;;;-3.40;99.90;;;;;;5076923;28;20408;-65
2021/12/26 11:54:21;;;;;;;4.28;2.35;;;-3.40;99.90;;;;;;5080654;28;20216;-63
2021/12/26 11:56:56;;;;;;;5.72;3.30;;;-3.30;99.90;;;;;;5061068;28;20220;-64
2021/12/26 11:59:39;;;;;;;3.60;2.45;;;-3.20;99.90;;;;;;5074806;28;20576;-65
2021/12/26 12:02:07;;;;;;;3.22;2.92;;;-3.20;99.90;;;;;;5080488;28;20216;-65
2021/12/26 12:04:36;;;;;;;2.70;2.40;;;-3.10;99.90;;;;;;5080830;28;20287;-65
2021/12/26 12:07:07;;;;;;;9.50;2.60;;;-3.10;99.90;;;;;;5081030;28;20813;-66
2021/12/26 12:09:37;;;;;;;2.80;2.50;;;-3.00;99.90;;;;;;5081430;28;20200;-65
2021/12/26 12:12:10;;;;;;;2.70;2.55;;;-3.00;99.90;;;;;;5084703;28;20817;-66
2021/12/26 12:14:52;;;;;;;3.53;2.85;;;-3.00;99.90;;;;;;5087520;28;20284;-66
2021/12/26 12:17:22;;;;;;;4.60;2.92;;;-2.90;99.90;;;;;;5092833;28;20209;-66
2021/12/26 12:20:16;;;;;;;2.25;2.13;;;-2.90;99.90;;;;;;5082093;28;20191;-66
2021/12/26 12:23:13;;;;;;;2.35;2.17;;;-2.80;99.90;;;;;;5076950;28;20300;-63
2021/12/26 12:25:49;;;;;;;3.90;2.50;;;-2.80;99.90;;;;;;5059510;28;20221;-62
2021/12/26 12:28:21;;;;;;;3.47;2.00;;;-2.70;99.90;;;;;;5060607;28;20250;-63
2021/12/26 12:30:51;;;;;;;2.85;2.65;;;-2.70;99.90;;;;;;5062690;28;20211;-63
2021/12/26 12:33:25;;;;;;;3.97;2.83;;;-2.70;99.90;;;;;;5063884;28;20208;-68
2021/12/26 12:35:58;;;;;;;2.63;2.33;;;-2.70;99.90;;;;;;5060039;28;20224;-62
2021/12/26 12:38:31;;;;;;;3.25;2.38;;;-2.60;99.90;;;;;;5059494;28;20202;-63
2021/12/26 12:41:35;;;;;;;2.78;2.42;;;-2.50;99.90;;;;;;5059087;28;20210;-64
2021/12/26 12:44:07;;;;;;;2.80;1.80;;;-2.50;99.90;;;;;;5059865;28;20476;-66
2021/12/26 12:46:53;;;;;;;2.90;2.00;;;-2.50;99.90;;;;;;5058992;28;20225;-65
2021/12/26 12:49:41;;;;;;;2.58;2.38;;;-2.50;99.90;;;;;;5059288;28;20205;-67
2021/12/26 12:52:37;;;;;;;4.40;3.00;;;-2.40;99.90;;;;;;5058616;28;20205;-67
2021/12/26 12:55:06;;;;;;;2.65;2.28;;;-2.40;99.90;;;;;;5058704;28;20271;-65
2021/12/26 12:57:36;;;;;;;2.65;2.45;;;-2.40;99.90;;;;;;5058577;28;20257;-65
2021/12/26 13:00:06;;;;;;;2.58;2.10;;;-2.40;99.90;;;;;;5058332;28;20312;-65